Time;durP1;ratioP1;P1;durP2;ratioP2;P2;SDS_P1;SDS_P2;PMS_P1;PMS_P2;Temp;Humidity;BMP_temperature;BMP_pressure;BME280_temperature;BME280_humidity;BME280_pressure;Samples;Min_cycle;Max_cycle;Signal;HPM_P1;HPM_P2
2022/11/04 00:03:50;;;;;;;30.75;16.05;;;;;;;13.24;63.74;99560.66;7710969;32;40915;-78
2022/11/04 00:08:25;;;;;;;33.42;16.10;;;;;;;13.15;63.86;99557.75;7710203;32;38765;-77
2022/11/04 00:12:41;;;;;;;33.03;15.88;;;;;;;13.05;64.43;99555.16;7710174;32;37177;-78
2022/11/04 00:17:21;;;;;;;33.33;15.90;;;;;;;13.04;64.38;99550.78;7709983;32;39345;-79
2022/11/04 00:30:47;;;;;;;40.92;17.80;;;;;;;12.85;65.36;99537.06;7736670;32;37712;-80
2022/11/04 00:35:04;;;;;;;37.05;18.08;;;;;;;12.99;65.17;99532.53;7736427;32;40552;-78
2022/11/04 00:39:20;;;;;;;35.55;16.92;;;;;;;12.59;66.48;99530.00;7730058;32;229768;-77
2022/11/04 00:43:36;;;;;;;36.38;16.87;;;;;;;12.67;66.49;99525.00;7737467;32;37999;-79
2022/11/04 00:47:52;;;;;;;38.65;18.73;;;;;;;12.73;66.18;99518.38;7738204;32;37506;-79
2022/11/04 00:52:09;;;;;;;38.70;17.42;;;;;;;12.58;66.74;99511.97;7733078;32;40077;-79
2022/11/04 00:56:25;;;;;;;35.42;18.17;;;;;;;12.90;65.63;99501.44;7711245;32;39957;-78
2022/11/04 01:00:41;;;;;;;39.55;18.00;;;;;;;12.99;65.48;99507.91;7710992;32;38703;-78
2022/11/04 01:04:57;;;;;;;37.75;18.25;;;;;;;12.94;65.86;99507.97;7729105;32;37006;-79
2022/11/04 01:09:14;;;;;;;47.88;19.30;;;;;;;12.77;66.60;99490.13;7738055;32;39574;-81
2022/11/04 01:13:30;;;;;;;43.30;18.30;;;;;;;12.73;66.71;99489.09;7737854;32;39839;-77
2022/11/04 01:17:47;;;;;;;47.90;19.87;;;;;;;12.88;66.30;99490.81;7737542;32;38708;-79
2022/11/04 01:22:03;;;;;;;46.10;19.75;;;;;;;13.00;65.95;99490.34;7737720;32;38147;-79
2022/11/04 01:26:21;;;;;;;39.30;18.23;;;;;;;12.99;65.82;99491.47;7737742;32;39405;-79
2022/11/04 01:30:38;;;;;;;39.17;17.95;;;;;;;13.14;65.50;99476.75;7737618;32;39937;-79
2022/11/04 01:34:54;;;;;;;43.00;19.62;;;;;;;12.94;66.39;99469.66;7720505;32;37893;-79
2022/11/04 01:39:12;;;;;;;38.90;17.48;;;;;;;12.69;67.10;99457.94;7710471;32;37538;-79
2022/11/04 01:44:00;;;;;;;38.08;17.55;;;;;;;12.85;66.36;99460.47;7710588;32;39320;-79
2022/11/04 01:48:24;;;;;;;41.15;20.30;;;;;;;13.01;65.61;99442.75;7734072;32;40037;-79
2022/11/04 01:52:51;;;;;;;47.50;19.55;;;;;;;12.82;66.27;99450.94;7737147;32;37675;-80
2022/11/04 01:57:12;;;;;;;41.42;19.12;;;;;;;13.03;65.62;99423.28;7734598;32;36955;-80
2022/11/04 02:01:30;;;;;;;36.90;18.37;;;;;;;12.36;67.58;99430.47;7736921;32;39939;-79
2022/11/04 02:05:47;;;;;;;38.22;17.90;;;;;;;12.80;66.42;99405.84;7735572;32;40035;-79
2022/11/04 02:10:03;;;;;;;36.03;18.02;;;;;;;12.95;65.83;99411.06;7735375;32;38696;-79
2022/11/04 02:14:19;;;;;;;45.47;19.02;;;;;;;12.87;66.27;99404.38;7736622;32;37297;-80
2022/11/04 02:18:51;;;;;;;40.35;19.12;;;;;;;12.95;66.02;99402.88;7736173;32;40107;-79
2022/11/04 02:23:25;;;;;;;50.05;20.52;;;;;;;12.81;66.83;99404.72;7728265;32;39879;-79
2022/11/04 02:27:41;;;;;;;42.05;19.58;;;;;;;12.82;67.05;99403.62;7709366;32;38058;-79
2022/11/04 02:32:09;;;;;;;41.85;19.17;;;;;;;12.93;66.32;99383.22;7710100;32;38003;-78
2022/11/04 02:36:50;;;;;;;41.72;19.05;;;;;;;13.06;65.88;99374.25;7735002;32;40149;-79
2022/11/04 02:41:24;;;;;;;41.05;19.52;;;;;;;12.70;67.06;99358.38;7734840;32;39750;-79
2022/11/04 02:45:46;;;;;;;43.67;19.70;;;;;;;12.38;67.63;99342.72;7735791;32;37665;-80
2022/11/04 02:50:16;;;;;;;45.65;20.48;;;;;;;12.52;67.75;99342.78;7735786;32;37122;-79
2022/11/04 02:54:53;;;;;;;41.37;19.48;;;;;;;12.16;68.82;99332.38;7735667;32;39960;-79
2022/11/04 02:59:19;;;;;;;38.63;19.23;;;;;;;12.44;67.92;99327.06;7735526;32;39819;-79
2022/11/04 03:03:43;;;;;;;40.45;20.33;;;;;;;11.99;69.62;99317.25;7723667;32;38017;-78
2022/11/04 03:08:04;;;;;;;41.63;20.08;;;;;;;11.98;69.73;99314.81;7709701;32;37283;-79
2022/11/04 03:12:24;;;;;;;44.42;20.70;;;;;;;11.98;69.79;99323.81;7711446;32;40142;-79
2022/11/04 03:16:55;;;;;;;44.67;20.70;;;;;;;12.18;69.17;99327.41;7711325;32;39669;-80
2022/11/04 03:21:12;;;;;;;45.45;20.85;;;;;;;12.46;67.43;99322.13;7711163;32;37888;-79
2022/11/04 03:25:39;;;;;;;47.53;20.35;;;;;;;12.07;68.84;99320.44;7732234;32;37446;-80
2022/11/04 03:29:58;;;;;;;44.10;20.45;;;;;;;12.59;67.17;99316.72;7737974;32;39457;-79
2022/11/04 03:34:15;;;;;;;45.42;22.20;;;;;;;12.73;66.56;99310.50;7721499;32;40957;-79
2022/11/04 03:38:31;;;;;;;42.80;20.70;;;;;;;12.42;67.39;99307.37;7710657;32;37884;-78
2022/11/04 03:42:56;;;;;;;43.33;20.70;;;;;;;12.51;67.06;99291.97;7712046;32;37284;-77
2022/11/04 03:47:12;;;;;;;46.15;21.65;;;;;;;12.21;67.97;99283.09;7711033;32;39024;-79
2022/11/04 03:51:28;;;;;;;47.28;20.52;;;;;;;12.11;68.16;99278.59;7710841;32;40868;-79
2022/11/04 03:55:59;;;;;;;46.15;21.20;;;;;;;11.85;68.62;99269.91;7711863;32;38729;-82
2022/11/04 04:00:20;;;;;;;46.00;21.30;;;;;;;12.21;67.57;99278.44;7711939;32;38134;-79
2022/11/04 04:04:39;;;;;;;46.13;21.80;;;;;;;12.22;67.56;99279.25;7711902;32;39277;-79
2022/11/04 04:09:00;;;;;;;46.15;20.77;;;;;;;12.26;67.19;99284.94;7710657;32;39996;-79
2022/11/04 04:13:23;;;;;;;42.22;21.20;;;;;;;12.22;67.06;99273.78;7733334;32;37989;-78
2022/11/04 04:17:48;;;;;;;45.05;21.10;;;;;;;11.76;68.68;99269.75;7723886;32;37527;-79
2022/11/04 04:22:09;;;;;;;41.37;20.08;;;;;;;12.20;67.02;99276.00;7737449;32;40050;-78
2022/11/04 04:31:01;;;;;;;46.55;20.60;;;;;;;11.85;67.79;99267.16;7737356;32;38608;-79
2022/11/04 04:49:15;;;;;;;43.50;21.23;;;;;;;11.63;68.71;99263.06;7710398;32;39225;-80
2022/11/04 04:53:32;;;;;;;46.50;21.73;;;;;;;11.60;69.01;99257.38;7711480;32;37017;-80
2022/11/04 04:57:48;;;;;;;46.08;21.10;;;;;;;11.62;69.20;99245.06;7727105;32;39024;-79
2022/11/04 05:02:04;;;;;;;45.05;20.67;;;;;;;11.62;68.89;99239.59;7737634;32;40505;-80
2022/11/04 05:06:20;;;;;;;47.80;21.58;;;;;;;11.78;68.19;99242.09;7711104;32;38834;-80
2022/11/04 05:10:36;;;;;;;46.70;22.42;;;;;;;11.41;69.54;99243.66;7711081;32;38033;-79
2022/11/04 05:14:52;;;;;;;50.85;22.92;;;;;;;11.75;68.35;99246.25;7711062;32;40217;-78
2022/11/04 05:19:09;;;;;;;47.65;21.30;;;;;;;11.23;70.12;99254.22;7710862;32;39974;-79
2022/11/04 05:23:25;;;;;;;55.22;22.87;;;;;;;11.28;69.96;99251.44;7710937;32;38790;-79
2022/11/04 05:27:41;;;;;;;48.20;21.95;;;;;;;11.44;69.12;99254.00;7710902;32;37457;-79
2022/11/04 05:31:57;;;;;;;48.70;22.27;;;;;;;11.30;69.95;99247.59;7716137;32;39288;-79
2022/11/04 05:36:15;;;;;;;47.65;23.42;;;;;;;11.49;69.22;99248.50;7737266;32;39962;-81
2022/11/04 05:40:31;;;;;;;54.55;24.00;;;;;;;11.44;69.48;99254.81;7733290;32;37869;-79
2022/11/04 05:44:47;;;;;;;54.97;25.35;;;;;;;11.21;69.94;99245.53;7710494;32;38480;-79
2022/11/04 05:49:04;;;;;;;53.53;23.15;;;;;;;11.26;70.00;99237.28;7710507;32;39065;-79
2022/11/04 05:53:20;;;;;;;48.87;23.48;;;;;;;10.88;71.44;99236.28;7710358;32;39964;-79
2022/11/04 05:57:37;;;;;;;50.12;21.80;;;;;;;10.87;71.42;99240.94;7710205;32;38056;-78
2022/11/04 06:01:53;;;;;;;44.33;21.50;;;;;;;11.07;70.77;99239.94;7723476;32;37335;-78
2022/11/04 06:06:09;;;;;;;51.72;22.65;;;;;;;11.31;69.94;99254.69;7736930;32;40130;-79
2022/11/04 06:10:25;;;;;;;42.45;21.27;;;;;;;11.44;69.13;99263.00;7736478;32;40013;-80
2022/11/04 06:14:42;;;;;;;47.40;21.40;;;;;;;11.39;69.19;99268.50;7736648;32;37895;-79
2022/11/04 06:18:59;;;;;;;49.00;20.98;;;;;;;11.42;68.68;99256.22;7736494;32;37180;-80
2022/11/04 06:23:24;;;;;;;44.50;20.60;;;;;;;11.04;70.16;99256.06;7736458;32;39324;-80
2022/11/04 06:27:40;;;;;;;44.15;21.58;;;;;;;11.32;69.27;99250.88;7719616;32;40827;-79
2022/11/04 06:31:56;;;;;;;46.45;21.87;;;;;;;11.48;68.41;99252.31;7709271;32;37989;-79
2022/11/04 06:36:14;;;;;;;44.72;20.20;;;;;;;11.45;68.43;99255.63;7721428;32;38179;-81
2022/11/04 06:40:30;;;;;;;48.47;20.52;;;;;;;11.03;70.14;99263.41;7711266;32;39195;-79
2022/11/04 06:44:46;;;;;;;57.95;21.75;;;;;;;11.17;69.96;99269.00;7732319;32;39988;-80
2022/11/04 06:49:03;;;;;;;48.67;21.60;;;;;;;11.26;69.46;99256.38;7739633;32;37981;-83
2022/11/04 06:53:19;;;;;;;50.70;22.73;;;;;;;11.21;70.13;99248.25;7713898;32;37506;-78
2022/11/04 06:57:36;;;;;;;49.85;22.05;;;;;;;11.11;70.34;99251.09;7712944;32;39290;-75
2022/11/04 07:01:52;;;;;;;50.53;22.50;;;;;;;11.56;70.67;99251.69;7721669;32;39813;-78
2022/11/04 07:06:10;;;;;;;50.30;22.23;;;;;;;11.43;69.49;99260.56;7721056;32;38755;-74
2022/11/04 07:10:26;;;;;;;53.67;22.42;;;;;;;11.59;68.81;99261.19;7725576;32;38016;-74
2022/11/04 07:14:43;;;;;;;48.92;20.67;;;;;;;11.68;68.69;99258.66;7712448;32;39527;-73
2022/11/04 07:18:59;;;;;;;47.25;21.87;;;;;;;11.69;68.31;99260.25;7727081;32;40757;-73
2022/11/04 07:23:15;;;;;;;45.30;21.65;;;;;;;11.73;67.66;99261.28;7731683;32;38073;-77
2022/11/04 07:27:31;;;;;;;50.05;22.23;;;;;;;11.78;67.45;99263.97;7739242;32;38029;-77
2022/11/04 07:31:47;;;;;;;46.85;22.52;;;;;;;11.27;69.99;99258.00;7720438;32;39380;-79
2022/11/04 07:36:05;;;;;;;50.30;21.90;;;;;;;11.35;68.96;99255.72;7712163;32;40013;-80
2022/11/04 07:40:21;;;;;;;46.60;21.27;;;;;;;11.53;68.46;99248.72;7720566;32;38725;-78
2022/11/04 07:44:37;;;;;;;47.33;20.77;;;;;;;11.95;66.85;99253.41;7738905;32;37899;-78
2022/11/04 07:48:57;;;;;;;49.97;22.80;;;;;;;11.84;67.14;99252.69;7727736;32;40639;-80
2022/11/04 07:53:13;;;;;;;43.45;21.12;;;;;;;11.53;68.31;99256.91;7712007;32;39999;-80
2022/11/04 07:57:29;;;;;;;53.47;22.48;;;;;;;11.57;67.65;99245.13;7711980;32;37461;-81
2022/11/04 08:01:45;;;;;;;50.05;21.50;;;;;;;11.60;67.76;99244.50;7731855;32;37307;-79
2022/11/04 08:06:04;;;;;;;47.28;21.67;;;;;;;10.79;70.86;99238.81;7738470;32;39818;-80
2022/11/04 08:10:20;;;;;;;47.58;20.37;;;;;;;11.34;69.08;99237.75;7728309;32;39940;-80
2022/11/04 08:14:36;;;;;;;48.40;22.52;;;;;;;11.56;68.71;99242.69;7711563;32;38779;-79
2022/11/04 08:18:53;;;;;;;47.90;22.08;;;;;;;11.49;68.67;99234.84;7712920;32;37209;-80
2022/11/04 08:23:10;;;;;;;50.15;21.62;;;;;;;11.16;69.52;99226.47;7738524;32;40070;-80
2022/11/04 08:27:27;;;;;;;42.35;20.20;;;;;;;11.29;69.03;99222.22;7738392;32;41400;-79
2022/11/04 08:31:43;;;;;;;49.67;21.30;;;;;;;10.92;70.37;99220.16;7718551;32;37914;-78
2022/11/04 08:36:05;;;;;;;44.70;21.35;;;;;;;11.41;69.04;99203.53;7717782;32;38666;-79
2022/11/04 08:40:23;;;;;;;51.30;21.67;;;;;;;11.14;70.18;99200.56;7715474;32;40491;-80
2022/11/04 08:44:39;;;;;;;48.67;22.77;;;;;;;11.27;69.55;99199.88;7713272;32;40821;-79
2022/11/04 08:48:55;;;;;;;49.15;22.17;;;;;;;10.78;71.50;99206.41;7711354;32;37971;-77
2022/11/04 08:53:11;;;;;;;51.08;22.98;;;;;;;11.24;69.64;99201.25;7718944;32;37314;-77
2022/11/04 08:57:30;;;;;;;53.58;24.27;;;;;;;10.84;71.49;99208.78;7731064;32;38988;-77
2022/11/04 09:01:47;;;;;;;50.03;22.67;;;;;;;11.35;69.18;99199.25;7736703;32;39931;-76
2022/11/04 09:06:05;;;;;;;45.00;22.87;;;;;;;10.87;70.62;99202.75;7736951;32;38010;-76
2022/11/04 09:10:22;;;;;;;54.83;24.40;;;;;;;11.22;69.70;99200.75;7737691;32;37730;-76
2022/11/04 09:14:38;;;;;;;51.33;23.58;;;;;;;11.30;69.07;99206.66;7719262;32;39302;-78
2022/11/04 09:18:56;;;;;;;49.58;23.12;;;;;;;10.91;70.63;99192.09;7713163;32;39497;-79
2022/11/04 09:23:12;;;;;;;45.55;22.30;;;;;;;11.34;68.87;99189.44;7733840;32;37997;-79
2022/11/04 09:27:29;;;;;;;49.88;23.30;;;;;;;11.30;69.09;99182.09;7731528;32;37257;-77
2022/11/04 09:31:46;;;;;;;47.95;22.58;;;;;;;11.48;68.87;99172.34;7736128;32;39413;-77
2022/11/04 09:36:02;;;;;;;46.13;24.10;;;;;;;11.46;68.40;99175.38;7732215;32;39602;-76
2022/11/04 09:40:21;;;;;;;59.30;25.98;;;;;;;11.73;67.33;99172.00;7727086;32;37949;-79
2022/11/04 09:44:46;;;;;;;73.62;35.10;;;;;;;11.55;67.89;99176.34;7725129;32;37192;-78
2022/11/04 09:49:25;;;;;;;91.30;41.53;;;;;;;11.24;69.33;99163.06;7709029;32;39524;-78
2022/11/04 09:53:50;;;;;;;80.50;40.33;;;;;;;11.62;68.60;99146.78;7710259;32;39930;-77
2022/11/04 09:58:11;;;;;;;93.80;42.62;;;;;;;11.74;68.64;99135.38;7709992;32;38505;-78
2022/11/04 10:03:14;;;;;;;122.65;57.90;;;;;;;11.52;69.18;99136.00;7708814;32;37441;-78
2022/11/04 10:08:13;;;;;;;54.10;26.40;;;;;;;11.49;69.45;99142.03;7728034;32;39815;-76
2022/11/04 10:13:08;;;;;;;52.80;25.20;;;;;;;11.41;69.55;99134.50;7684798;32;39606;-77
2022/11/04 10:17:44;;;;;;;47.35;24.30;;;;;;;11.64;69.20;99141.00;7712431;32;38149;-78
2022/11/04 10:22:27;;;;;;;47.67;23.12;;;;;;;11.45;70.09;99136.34;7722238;32;37260;-79
2022/11/04 10:26:53;;;;;;;45.15;22.60;;;;;;;11.57;69.62;99135.09;7726037;32;39261;-77
2022/11/04 10:31:17;;;;;;;56.13;25.52;;;;;;;11.87;68.45;99114.72;7738690;32;40812;-77
2022/11/04 10:35:39;;;;;;;48.72;23.50;;;;;;;11.73;68.38;99124.75;7703086;32;36892;-77
2022/11/04 10:40:27;;;;;;;49.33;25.37;;;;;;;11.76;69.05;99096.88;7737142;32;36911;-77
2022/11/04 10:44:47;;;;;;;48.40;23.70;;;;;;;11.61;69.18;99097.94;7735351;32;40191;-77
2022/11/04 10:49:12;;;;;;;49.83;24.58;;;;;;;11.71;68.90;99088.75;7737947;32;39991;-77
2022/11/04 10:53:31;;;;;;;52.45;25.27;;;;;;;11.63;68.99;99082.84;7716007;32;38005;-77
2022/11/04 10:57:48;;;;;;;45.10;23.10;;;;;;;11.40;69.82;99079.09;7725605;32;38462;-77
2022/11/04 11:02:04;;;;;;;42.35;24.00;;;;;;;11.34;70.10;99080.28;7737532;32;40212;-78
2022/11/04 11:06:27;;;;;;;49.28;24.83;;;;;;;11.34;69.62;99074.81;7737629;32;39898;-79
2022/11/04 11:27:10;;;;;;;51.92;27.40;;;;;;;12.09;67.30;99034.91;7823631;31;204541;-79
2022/11/04 11:31:39;;;;;;;51.47;26.60;;;;;;;12.19;66.64;99029.28;7816173;32;39824;-80
2022/11/04 11:36:00;;;;;;;54.00;25.88;;;;;;;12.46;65.72;99037.81;7784456;32;37910;-80
2022/11/04 11:40:33;;;;;;;48.40;26.83;;;;;;;12.38;65.83;99018.25;7811486;32;36855;-79
2022/11/04 11:44:55;;;;;;;50.53;26.70;;;;;;;12.05;67.13;99028.41;7809423;32;39296;-79
2022/11/04 11:49:21;;;;;;;57.58;28.08;;;;;;;12.25;66.82;99015.50;7797159;32;39906;-80
2022/11/04 11:53:44;;;;;;;50.38;26.92;;;;;;;12.36;66.29;99012.25;7794823;32;37468;-79
2022/11/04 11:58:22;;;;;;;60.08;28.33;;;;;;;12.01;67.21;99009.09;7807967;32;37274;-78
2022/11/04 12:03:07;;;;;;;53.60;26.40;;;;;;;11.89;67.60;99013.38;7809126;32;39067;-80
2022/11/04 12:07:31;;;;;;;57.47;28.05;;;;;;;12.02;68.07;98988.03;7797282;32;39998;-79
2022/11/04 12:12:07;;;;;;;57.80;27.77;;;;;;;11.84;68.31;98976.03;7810491;32;38240;-80
2022/11/04 12:16:35;;;;;;;57.47;27.20;;;;;;;12.13;67.27;98975.00;7810857;32;37598;-80
2022/11/04 12:20:57;;;;;;;52.10;28.02;;;;;;;12.45;66.67;98954.97;7797517;32;39867;-80
2022/11/04 12:26:04;;;;;;;50.67;28.50;;;;;;;12.34;67.48;98948.91;7792011;32;40172;-80
2022/11/04 12:30:24;;;;;;;55.12;27.65;;;;;;;12.58;67.16;98945.94;7681416;32;37743;-78
2022/11/04 12:35:02;;;;;;;53.53;28.58;;;;;;;12.61;66.27;98930.88;7758354;32;37189;-79
2022/11/04 12:39:35;;;;;;;51.00;28.48;;;;;;;11.95;68.10;98927.53;7789019;32;38935;-80
2022/11/04 12:44:24;;;;;;;55.35;28.90;;;;;;;12.46;66.67;98934.72;7777139;32;39459;-79
2022/11/04 12:48:46;;;;;;;54.95;28.75;;;;;;;12.35;67.49;98928.66;7792461;32;38816;-80
2022/11/04 12:53:16;;;;;;;57.65;29.30;;;;;;;12.42;67.41;98935.63;7779648;32;37667;-80
2022/11/04 12:57:55;;;;;;;54.88;29.77;;;;;;;12.40;67.63;98930.50;7766004;32;39230;-80
2022/11/04 13:02:20;;;;;;;51.90;28.45;;;;;;;12.26;67.78;98926.94;7764788;32;39953;-80
2022/11/04 13:06:44;;;;;;;55.28;28.35;;;;;;;12.65;66.38;98917.41;7765825;32;38025;-79
2022/11/04 13:11:23;;;;;;;54.28;30.15;;;;;;;12.53;66.82;98912.44;7764797;32;36954;-80
2022/11/04 13:15:48;;;;;;;55.30;28.65;;;;;;;12.33;67.79;98908.19;7751977;32;39175;-80
2022/11/04 13:20:13;;;;;;;58.13;28.87;;;;;;;12.29;67.75;98908.00;7751556;32;40750;-79
2022/11/04 13:24:33;;;;;;;50.60;28.50;;;;;;;12.15;68.17;98899.81;7765164;32;38762;-80
2022/11/04 13:29:09;;;;;;;55.67;30.33;;;;;;;12.11;68.22;98901.53;7752023;32;37394;-80
2022/11/04 13:33:32;;;;;;;60.17;29.10;;;;;;;12.36;67.43;98893.94;7763356;32;39846;-81
2022/11/04 13:37:56;;;;;;;58.05;31.35;;;;;;;12.46;67.47;98892.91;7765094;32;40428;-80
2022/11/04 13:42:50;;;;;;;62.85;31.27;;;;;;;12.43;67.10;98891.59;7751357;32;37650;-79
2022/11/04 13:47:17;;;;;;;63.95;31.70;;;;;;;11.95;69.11;98879.19;7765004;32;37892;-80
2022/11/04 13:51:43;;;;;;;55.63;30.35;;;;;;;11.90;69.52;98884.72;7751580;32;39923;-80
2022/11/04 13:55:59;;;;;;;58.03;29.87;;;;;;;11.93;69.68;98886.84;7764839;32;40899;-80
2022/11/04 14:00:36;;;;;;;58.75;28.95;;;;;;;12.31;68.02;98878.44;7764409;32;38260;-79
2022/11/04 14:04:54;;;;;;;53.10;27.85;;;;;;;11.90;69.40;98868.34;7764829;32;36837;-79
2022/11/04 14:09:31;;;;;;;58.75;29.05;;;;;;;11.95;70.36;98870.16;7751090;32;39683;-79
2022/11/04 14:14:00;;;;;;;54.78;28.90;;;;;;;12.31;69.02;98867.50;7764669;32;40744;-79
2022/11/04 14:18:28;;;;;;;49.90;28.08;;;;;;;12.40;68.60;98870.38;7751974;32;38742;-80
2022/11/04 14:22:54;;;;;;;55.80;28.85;;;;;;;12.41;68.37;98869.22;7763775;32;36973;-79
2022/11/04 14:27:33;;;;;;;49.70;26.87;;;;;;;12.50;68.30;98861.91;7764845;32;39876;-80
2022/11/04 14:31:52;;;;;;;51.45;26.52;;;;;;;12.66;67.73;98867.03;7750525;32;39863;-79
2022/11/04 14:36:20;;;;;;;51.03;28.33;;;;;;;12.68;67.72;98865.63;7764580;32;38789;-80
2022/11/04 14:40:51;;;;;;;52.97;29.02;;;;;;;12.56;67.86;98859.91;7763798;32;37378;-80
2022/11/04 14:45:12;;;;;;;51.45;29.02;;;;;;;12.36;68.47;98853.75;7763577;32;39957;-79
2022/11/04 14:49:39;;;;;;;54.22;29.63;;;;;;;12.26;69.16;98843.03;7750735;32;40910;-80
2022/11/04 14:54:25;;;;;;;53.92;31.35;;;;;;;12.66;67.85;98843.25;7763225;32;37925;-79
2022/11/04 14:58:56;;;;;;;52.60;30.05;;;;;;;12.46;68.51;98830.06;7748703;32;37240;-79
2022/11/04 15:03:19;;;;;;;50.72;29.63;;;;;;;12.27;69.20;98825.53;7763609;32;40455;-80
2022/11/04 15:07:55;;;;;;;56.92;30.08;;;;;;;12.10;70.20;98839.00;7763419;32;41255;-80
2022/11/04 15:16:52;;;;;;;49.08;28.73;;;;;;;12.69;68.22;98848.09;7763422;32;36987;-79
2022/11/04 15:21:09;;;;;;;50.08;29.15;;;;;;;12.34;69.27;98855.19;7763274;32;39167;-79
2022/11/04 15:25:25;;;;;;;53.95;27.73;;;;;;;12.55;68.68;98850.06;7763123;32;40730;-80
2022/11/04 15:29:53;;;;;;;51.35;28.10;;;;;;;12.59;68.55;98840.16;7748993;32;36468;-80
2022/11/04 15:34:11;;;;;;;56.83;27.90;;;;;;;12.69;68.62;98847.28;7763062;32;37256;-80
2022/11/04 15:38:30;;;;;;;44.92;26.25;;;;;;;12.43;69.67;98841.59;7749574;32;39980;-80
2022/11/04 15:42:47;;;;;;;52.88;28.20;;;;;;;12.68;68.81;98837.47;7762757;32;39890;-79
2022/11/04 15:47:20;;;;;;;45.45;25.90;;;;;;;12.82;68.31;98831.97;7762357;32;38768;-79
2022/11/04 15:51:41;;;;;;;47.20;26.17;;;;;;;12.73;68.36;98831.91;7762323;32;37098;-79
2022/11/04 15:55:59;;;;;;;47.80;24.98;;;;;;;12.80;68.44;98815.03;7763317;32;39388;-80
2022/11/04 16:00:16;;;;;;;47.40;25.73;;;;;;;12.89;68.02;98811.25;7766075;32;39320;-79
2022/11/04 16:04:32;;;;;;;53.33;24.55;;;;;;;12.30;70.13;98810.47;7766142;32;38637;-80
2022/11/04 16:09:04;;;;;;;48.25;26.45;;;;;;;12.73;68.79;98824.50;7766492;32;37763;-80
2022/11/04 16:13:23;;;;;;;49.58;26.50;;;;;;;12.54;69.60;98821.13;7765848;32;38877;-80
2022/11/04 16:17:44;;;;;;;45.12;25.02;;;;;;;12.57;69.63;98810.38;7752463;32;39849;-79
2022/11/04 16:22:03;;;;;;;50.75;26.75;;;;;;;12.56;69.67;98821.63;7751925;32;38047;-79
2022/11/04 16:26:28;;;;;;;54.47;27.55;;;;;;;12.57;69.59;98831.41;7765814;32;37224;-80
2022/11/04 16:30:56;;;;;;;50.85;27.30;;;;;;;12.36;69.49;98836.53;7765583;32;39190;-79
2022/11/04 16:35:26;;;;;;;44.00;25.58;;;;;;;12.81;68.43;98835.81;7765549;32;40937;-80
2022/11/04 16:39:44;;;;;;;51.08;26.98;;;;;;;12.86;68.14;98824.75;7765581;32;38636;-79
2022/11/04 16:44:01;;;;;;;49.47;26.45;;;;;;;12.94;67.71;98818.53;7765812;32;38000;-80
2022/11/04 16:48:19;;;;;;;54.72;27.13;;;;;;;12.59;69.49;98818.28;7752006;32;39114;-77
2022/11/04 16:52:35;;;;;;;49.88;27.65;;;;;;;12.43;70.20;98814.25;7765382;32;40920;-78
2022/11/04 16:56:59;;;;;;;47.83;27.33;;;;;;;12.40;70.20;98805.56;7789795;32;37980;-79
2022/11/04 17:01:17;;;;;;;50.38;28.27;;;;;;;12.28;70.59;98808.03;7792288;32;37208;-80
2022/11/04 17:05:34;;;;;;;52.95;27.30;;;;;;;12.38;69.99;98813.25;7792155;32;39057;-79
2022/11/04 17:09:50;;;;;;;49.08;26.02;;;;;;;12.49;70.02;98830.25;7791533;32;39421;-80
2022/11/04 17:14:06;;;;;;;48.15;26.12;;;;;;;12.66;69.40;98834.22;7791214;32;38556;-79
2022/11/04 17:18:23;;;;;;;49.53;28.05;;;;;;;12.52;69.39;98828.81;7791627;32;37839;-78
2022/11/04 17:22:39;;;;;;;50.42;26.08;;;;;;;12.81;68.81;98830.34;7791755;32;39847;-80
2022/11/04 17:26:56;;;;;;;49.70;26.92;;;;;;;12.83;68.72;98833.56;7791578;32;40861;-79
2022/11/04 17:31:19;;;;;;;54.35;28.10;;;;;;;12.80;68.51;98842.37;7785861;32;38046;-80
2022/11/04 17:35:48;;;;;;;48.65;25.70;;;;;;;12.60;69.80;98841.75;7791975;32;37189;-79
2022/11/04 17:40:05;;;;;;;50.85;26.62;;;;;;;12.87;68.97;98835.37;7777643;32;39671;-79
2022/11/04 17:44:22;;;;;;;48.00;26.05;;;;;;;12.79;69.28;98816.97;7777033;32;40827;-80
2022/11/04 17:48:38;;;;;;;46.97;26.75;;;;;;;12.86;69.34;98802.88;7778649;32;37967;-80
2022/11/04 17:52:54;;;;;;;48.22;27.45;;;;;;;12.84;69.42;98805.09;7790807;32;38234;-79
2022/11/04 17:57:10;;;;;;;52.92;27.48;;;;;;;12.59;70.42;98830.00;7784134;32;38816;-80
2022/11/04 18:01:27;;;;;;;51.67;27.37;;;;;;;12.54;70.85;98815.66;7790338;32;39870;-81
2022/11/04 18:05:56;;;;;;;50.55;27.00;;;;;;;12.66;70.40;98821.38;7790862;32;36811;-81
2022/11/04 18:10:13;;;;;;;47.80;26.92;;;;;;;12.82;69.81;98838.22;7789182;32;35976;-81
2022/11/04 18:14:29;;;;;;;54.63;29.52;;;;;;;12.49;71.03;98863.03;7773408;32;40060;-81
2022/11/04 18:18:45;;;;;;;48.08;26.45;;;;;;;12.75;70.19;98898.03;7772857;32;39971;-79
2022/11/04 18:23:02;;;;;;;44.55;24.67;;;;;;;13.17;68.84;98884.19;7815963;32;38029;-79
2022/11/04 18:27:18;;;;;;;48.63;24.85;;;;;;;13.52;67.44;98888.81;7766149;32;37207;-79
2022/11/04 18:31:39;;;;;;;47.15;24.95;;;;;;;13.07;69.05;98915.34;7790718;32;39889;-79
2022/11/04 18:36:06;;;;;;;48.35;25.33;;;;;;;13.36;68.29;98901.25;7796094;32;39895;-80
2022/11/04 18:40:24;;;;;;;41.80;24.17;;;;;;;13.50;67.51;98915.69;7770708;32;37743;-78
2022/11/04 18:44:40;;;;;;;43.80;23.67;;;;;;;13.10;69.30;98921.00;7779760;32;37791;-81
2022/11/04 18:48:56;;;;;;;45.58;25.58;;;;;;;13.53;67.99;98906.84;7790141;32;38983;-80
2022/11/04 18:53:13;;;;;;;49.28;26.23;;;;;;;13.36;68.52;98914.94;7790694;32;40614;-81
2022/11/04 18:57:29;;;;;;;44.42;26.12;;;;;;;13.65;67.57;98895.31;7791331;32;38626;-79
2022/11/04 19:01:46;;;;;;;43.30;26.08;;;;;;;13.82;66.72;98877.38;7790046;32;37195;-80
2022/11/04 19:06:07;;;;;;;42.40;24.75;;;;;;;13.75;66.99;98894.25;7790531;32;39994;-80
2022/11/04 19:10:23;;;;;;;48.95;26.50;;;;;;;13.79;66.81;98881.53;7789915;32;39906;-80
2022/11/04 19:14:39;;;;;;;42.95;26.08;;;;;;;13.74;66.83;98867.97;7790658;32;38043;-80
2022/11/04 19:18:59;;;;;;;45.25;25.23;;;;;;;13.67;66.87;98884.03;7790320;32;36732;-80
2022/11/04 19:23:15;;;;;;;50.38;25.77;;;;;;;13.80;66.67;98876.88;7785630;32;38915;-77
2022/11/04 19:27:31;;;;;;;49.53;26.35;;;;;;;13.69;67.18;98870.84;7783702;32;40719;-82
2022/11/04 19:31:47;;;;;;;44.28;25.85;;;;;;;13.55;68.07;98870.94;7790898;32;38607;-79
2022/11/04 19:36:05;;;;;;;43.50;24.25;;;;;;;13.58;67.93;98877.72;7793098;32;37306;-81
2022/11/04 19:40:21;;;;;;;48.47;27.10;;;;;;;13.42;68.58;98864.44;7792583;32;39259;-81
2022/11/04 19:44:37;;;;;;;44.97;25.50;;;;;;;13.55;68.43;98854.50;7793789;32;40699;-81
2022/11/04 19:48:57;;;;;;;49.80;26.45;;;;;;;13.40;68.75;98853.00;7792819;32;38168;-80
2022/11/04 19:53:14;;;;;;;44.35;26.25;;;;;;;13.44;68.43;98873.13;7779208;32;37108;-80
2022/11/04 19:57:30;;;;;;;42.28;25.42;;;;;;;13.38;68.86;98873.56;7793310;32;40276;-80
2022/11/04 20:01:47;;;;;;;46.15;26.02;;;;;;;13.49;68.48;98866.72;7792768;32;40843;-81
2022/11/04 20:06:05;;;;;;;41.05;25.25;;;;;;;13.57;68.02;98873.34;7792896;32;38675;-80
2022/11/04 20:10:22;;;;;;;43.65;24.12;;;;;;;13.73;67.81;98871.84;7792695;32;36192;-81
2022/11/04 20:14:38;;;;;;;44.35;24.80;;;;;;;13.75;67.72;98877.81;7789560;32;39945;-80
2022/11/04 20:18:58;;;;;;;45.42;24.85;;;;;;;13.69;67.98;98885.38;7789839;32;39476;-80
2022/11/04 20:23:14;;;;;;;46.80;27.50;;;;;;;13.66;67.96;98898.84;7789350;32;37732;-77
2022/11/04 20:27:31;;;;;;;42.80;25.98;;;;;;;13.58;68.27;98896.91;7787504;32;36937;-81
2022/11/04 20:31:47;;;;;;;41.90;25.20;;;;;;;13.35;69.08;98902.41;7792340;32;39462;-80
2022/11/04 20:36:05;;;;;;;48.22;26.23;;;;;;;13.48;68.41;98904.22;7793077;32;40832;-81
2022/11/04 20:40:21;;;;;;;43.15;25.35;;;;;;;13.59;68.19;98914.94;7792424;32;38864;-80
2022/11/04 20:44:37;;;;;;;46.15;25.83;;;;;;;13.42;68.78;98927.41;7786863;32;38564;-81
2022/11/04 20:48:55;;;;;;;45.63;25.80;;;;;;;13.46;68.39;98928.38;7788041;32;39231;-80
2022/11/04 20:53:11;;;;;;;47.15;25.35;;;;;;;13.39;68.83;98938.97;7790432;32;40899;-80